Terminal Aerodrome Forecast
Issued by NWS Sterling, VA

Home | Current Version | Previous Version | Text Only | Print | Product List | Glossary On
Versions: 1 2 3 4 5 6 7 8 9 10 11 12 13 14 15 16
336
FTUS41 KLWX 051132
TAFCHO
TAF
KCHO 051132Z 0512/0612 18006KT P6SM BKN005 OVC035
     FM051300 23004KT P6SM SCT035
     FM051600 32008G16KT P6SM SCT050
     FM052200 VRB04KT P6SM BKN200
     FM061100 VRB04KT 6SM -RAPL OVC050=

USA.gov is the U.S. government's official web portal to all federal, state and local government web resources and services.